createdAt,value
2023-01-21T00:01:47.639Z,100801.31
2023-01-21T00:04:16.772Z,100803.88
2023-01-21T00:06:46.195Z,100799.80
2023-01-21T00:09:15.345Z,100801.02
2023-01-21T00:11:43.945Z,100809.70
2023-01-21T00:14:12.535Z,100801.20
2023-01-21T00:16:41.471Z,100804.10
2023-01-21T00:19:10.515Z,100805.11
2023-01-21T00:21:39.470Z,100809.18
2023-01-21T00:24:08.165Z,100816.48
2023-01-21T00:26:37.292Z,100819.90
2023-01-21T00:29:06.025Z,100820.23
2023-01-21T00:31:35.295Z,100819.55
2023-01-21T00:34:03.914Z,100823.13
2023-01-21T00:36:32.571Z,100828.42
2023-01-21T00:39:01.650Z,100830.48
2023-01-21T00:41:30.057Z,100836.10
2023-01-21T00:43:58.518Z,100835.42
2023-01-21T00:46:29.042Z,100830.34
2023-01-21T00:48:57.877Z,100836.96
2023-01-21T00:51:27.457Z,100844.13
2023-01-21T00:53:56.661Z,100841.40
2023-01-21T00:56:25.604Z,100840.90
2023-01-21T00:59:20.201Z,100835.45
2023-01-21T01:01:49.565Z,100833.75
2023-01-21T01:04:18.806Z,100829.70
2023-01-21T01:06:47.737Z,100832.95
2023-01-21T01:09:16.851Z,100834.31
2023-01-21T01:11:45.421Z,100831.42
2023-01-21T01:14:14.546Z,100836.58
2023-01-21T01:16:42.961Z,100841.52
2023-01-21T01:19:13.288Z,100843.45
2023-01-21T01:21:42.288Z,100843.46
2023-01-21T01:24:10.859Z,100843.50
2023-01-21T01:26:42.189Z,100842.48
2023-01-21T01:29:13.779Z,100844.20
2023-01-21T01:31:44.080Z,100843.39
2023-01-21T01:34:13.106Z,100844.58
2023-01-21T01:36:41.625Z,100847.67
2023-01-21T01:39:10.484Z,100847.70
2023-01-21T01:41:39.572Z,100846.16
2023-01-21T01:44:46.723Z,100848.23
2023-01-21T01:47:16.559Z,100849.96
2023-01-21T01:49:45.586Z,100853.03
2023-01-21T01:52:16.798Z,100854.09
2023-01-21T01:54:50.103Z,100855.98
2023-01-21T01:57:23.191Z,100858.59
2023-01-21T02:00:25.159Z,100857.41
2023-01-21T02:03:14.022Z,100856.61
2023-01-21T02:05:44.480Z,100850.52
2023-01-21T02:08:13.139Z,100853.61
2023-01-21T02:10:41.787Z,100846.66
2023-01-21T02:13:12.297Z,100853.33
2023-01-21T02:15:43.647Z,100852.86
2023-01-21T02:18:42.091Z,100850.17
2023-01-21T02:21:26.139Z,100851.08
2023-01-21T02:24:25.329Z,100850.94
2023-01-21T02:27:08.938Z,100842.12
2023-01-21T02:29:56.403Z,100832.77
2023-01-21T02:32:28.445Z,100831.77
2023-01-21T02:35:12.314Z,100829.91
2023-01-21T02:37:52.353Z,100833.52
2023-01-21T02:40:26.943Z,100833.05
2023-01-21T02:42:58.081Z,100835.29
2023-01-21T02:45:47.591Z,100836.35
2023-01-21T02:48:23.262Z,100837.91
2023-01-21T02:50:54.271Z,100839.63
2023-01-21T02:53:33.772Z,100837.43
2023-01-21T02:56:15.414Z,100835.57
2023-01-21T02:59:00.694Z,100835.25
2023-01-21T03:01:58.936Z,100836.45
2023-01-21T03:05:05.372Z,100836.96
2023-01-21T03:07:36.504Z,100837.47
2023-01-21T03:10:11.360Z,100837.25
2023-01-21T03:12:44.467Z,100839.30
2023-01-21T03:15:59.638Z,100838.27
2023-01-21T03:18:34.620Z,100832.64
2023-01-21T03:21:10.341Z,100835.00
2023-01-21T03:23:42.835Z,100830.40
2023-01-21T03:26:15.614Z,100826.14
2023-01-21T03:28:53.337Z,100823.41
2023-01-21T03:31:29.154Z,100821.35
2023-01-21T03:34:01.452Z,100824.09
2023-01-21T03:36:58.136Z,100825.27
2023-01-21T03:39:43.629Z,100827.83
2023-01-21T03:42:14.037Z,100829.19
2023-01-21T03:44:42.814Z,100831.41
2023-01-21T03:47:23.107Z,100829.53
2023-01-21T03:50:17.845Z,100829.88
2023-01-21T03:52:47.402Z,100821.69
2023-01-21T03:55:18.169Z,100821.52
2023-01-21T03:57:46.658Z,100818.98
2023-01-21T04:01:17.923Z,100816.42
2023-01-21T04:03:47.600Z,100816.94
2023-01-21T04:06:19.115Z,100815.57
2023-01-21T04:08:48.548Z,100811.14
2023-01-21T04:11:17.542Z,100810.65
2023-01-21T04:13:46.650Z,100814.24
2023-01-21T04:16:15.184Z,100806.76
2023-01-21T04:18:43.729Z,100807.96
2023-01-21T04:21:12.500Z,100810.69
2023-01-21T04:23:41.577Z,100809.01
2023-01-21T04:26:11.060Z,100810.55
2023-01-21T04:28:40.147Z,100809.55
2023-01-21T04:31:09.285Z,100812.46
2023-01-21T04:33:37.836Z,100804.63
2023-01-21T04:36:06.558Z,100807.02
2023-01-21T04:38:35.655Z,100804.64
2023-01-21T04:41:04.085Z,100812.30
2023-01-21T04:43:32.578Z,100805.35
2023-01-21T04:46:02.047Z,100805.70
2023-01-21T04:48:30.748Z,100804.69
2023-01-21T04:50:59.579Z,100802.48
2023-01-21T04:53:28.853Z,100800.09
2023-01-21T04:55:57.284Z,100799.95
2023-01-21T04:58:27.800Z,100808.83
2023-01-21T05:00:56.740Z,100804.08
2023-01-21T05:03:25.838Z,100799.15
2023-01-21T05:05:54.436Z,100796.77
2023-01-21T05:08:22.900Z,100797.79
2023-01-21T05:10:51.527Z,100795.23
2023-01-21T05:13:19.987Z,100799.85
2023-01-21T05:15:48.923Z,100802.26
2023-01-21T05:18:17.403Z,100799.71
2023-01-21T05:20:45.920Z,100803.49
2023-01-21T05:23:14.459Z,100802.30
2023-01-21T05:25:43.152Z,100804.37
2023-01-21T05:28:11.610Z,100799.44
2023-01-21T05:30:41.783Z,100804.05
2023-01-21T05:33:11.346Z,100804.23
2023-01-21T05:35:39.975Z,100797.96
2023-01-21T05:38:08.504Z,100800.01
2023-01-21T05:40:37.683Z,100793.06
2023-01-21T05:43:06.365Z,100782.49
2023-01-21T05:45:34.697Z,100788.80
2023-01-21T05:48:03.122Z,100782.84
2023-01-21T05:50:32.952Z,100782.01
2023-01-21T05:53:01.983Z,100781.52
2023-01-21T05:55:31.012Z,100779.67
2023-01-21T05:58:00.016Z,100778.99
2023-01-21T06:00:28.641Z,100772.88
2023-01-21T06:02:57.769Z,100778.54
2023-01-21T06:05:26.292Z,100777.71
2023-01-21T06:07:54.840Z,100776.85
2023-01-21T06:10:23.409Z,100778.76
2023-01-21T06:12:53.082Z,100778.93
2023-01-21T06:15:21.669Z,100782.73
2023-01-21T06:17:50.760Z,100777.10
2023-01-21T06:20:19.686Z,100778.13
2023-01-21T06:22:49.379Z,100779.67
2023-01-21T06:25:17.867Z,100779.35
2023-01-21T06:27:46.427Z,100777.30
2023-01-21T06:30:15.860Z,100781.91
2023-01-21T06:32:45.090Z,100778.67
2023-01-21T06:35:13.601Z,100779.54
2023-01-21T06:37:42.509Z,100778.70
2023-01-21T06:40:12.279Z,100774.10
2023-01-21T06:42:40.852Z,100774.95
2023-01-21T06:45:09.779Z,100775.14
2023-01-21T06:47:42.133Z,100776.70
2023-01-21T06:50:12.723Z,100772.09
2023-01-21T06:52:47.576Z,100773.14
2023-01-21T06:55:17.513Z,100771.27
2023-01-21T06:57:46.517Z,100773.83
2023-01-21T07:00:16.249Z,100765.64
2023-01-21T07:02:45.208Z,100767.69
2023-01-21T07:05:15.625Z,100762.75
2023-01-21T07:07:44.384Z,100761.89
2023-01-21T07:10:12.924Z,100760.02
2023-01-21T07:12:41.607Z,100754.90
2023-01-21T07:15:10.534Z,100762.58
2023-01-21T07:17:39.553Z,100763.07
2023-01-21T07:20:10.225Z,100756.25
2023-01-21T07:22:39.371Z,100760.70
2023-01-21T07:25:08.939Z,100757.14
2023-01-21T07:27:37.910Z,100765.85
2023-01-21T07:30:07.074Z,100758.17
2023-01-21T07:32:35.651Z,100760.22
2023-01-21T07:35:04.432Z,100757.67
2023-01-21T07:37:33.512Z,100757.35
2023-01-21T07:40:02.075Z,100758.55
2023-01-21T07:42:30.773Z,100752.40
2023-01-21T07:44:59.994Z,100747.98
2023-01-21T07:47:29.135Z,100742.69
2023-01-21T07:49:58.584Z,100741.15
2023-01-21T07:52:27.102Z,100743.38
2023-01-21T07:54:55.778Z,100732.45
2023-01-21T07:57:24.274Z,100728.70
2023-01-21T07:59:56.645Z,100724.94
2023-01-21T08:02:26.200Z,100721.54
2023-01-21T08:04:54.974Z,100718.80
2023-01-21T08:07:23.848Z,100716.23
2023-01-21T08:09:52.359Z,100707.02
2023-01-21T08:12:20.898Z,100711.79
2023-01-21T08:14:49.727Z,100714.71
2023-01-21T08:17:18.265Z,100707.21
2023-01-21T08:19:47.360Z,100703.10
2023-01-21T08:22:15.889Z,100705.14
2023-01-21T08:24:44.360Z,100703.60
2023-01-21T08:27:12.865Z,100691.33
2023-01-21T08:29:41.535Z,100696.61
2023-01-21T08:32:10.421Z,100687.57
2023-01-21T08:34:39.045Z,100688.94
2023-01-21T08:37:07.572Z,100685.36
2023-01-21T08:39:35.988Z,100686.38
2023-01-21T08:42:05.226Z,100682.79
2023-01-21T08:44:35.963Z,100682.98
2023-01-21T08:47:04.610Z,100685.02
2023-01-21T08:49:33.135Z,100676.48
2023-01-21T08:52:01.957Z,100676.15
2023-01-21T08:54:30.479Z,100671.72
2023-01-21T08:56:59.032Z,100664.89
2023-01-21T08:59:30.422Z,100670.34
2023-01-21T09:02:00.128Z,100672.40
2023-01-21T09:04:30.696Z,100669.66
2023-01-21T09:06:59.281Z,100663.16
2023-01-21T09:09:27.908Z,100661.45
2023-01-21T09:11:57.107Z,100653.95
2023-01-21T09:14:27.006Z,100652.25
2023-01-21T09:16:56.597Z,100651.39
2023-01-21T09:19:25.323Z,100644.73
2023-01-21T09:21:55.816Z,100642.68
2023-01-21T09:24:25.387Z,100632.77
2023-01-21T09:26:53.931Z,100634.48
2023-01-21T09:29:22.864Z,100629.88
2023-01-21T09:31:51.821Z,100629.55
2023-01-21T09:34:20.437Z,100629.55
2023-01-21T09:36:49.449Z,100628.02
2023-01-21T09:39:17.912Z,100623.42
2023-01-21T09:41:52.622Z,100620.35
2023-01-21T09:44:30.836Z,100625.98
2023-01-21T09:47:09.590Z,100622.40
2023-01-21T09:49:42.284Z,100622.73
2023-01-21T09:52:25.168Z,100627.66
2023-01-21T09:54:55.492Z,100632.77
2023-01-21T09:57:45.297Z,100634.65
2023-01-21T10:00:54.963Z,100634.82
2023-01-21T10:03:28.520Z,100635.02
2023-01-21T10:06:13.641Z,100637.40
2023-01-21T10:08:48.477Z,100640.31
2023-01-21T10:11:23.073Z,100637.58
2023-01-21T10:14:20.252Z,100637.60
2023-01-21T10:16:54.772Z,100639.98
2023-01-21T10:19:33.870Z,100637.29
2023-01-21T10:22:24.140Z,100641.91
2023-01-21T10:25:26.236Z,100641.92
2023-01-21T10:27:59.822Z,100639.70
2023-01-21T10:30:36.326Z,100644.67
2023-01-21T10:33:12.993Z,100635.12
2023-01-21T10:36:16.003Z,100635.45
2023-01-21T10:39:08.732Z,100636.85
2023-01-21T10:42:12.478Z,100631.73
2023-01-21T10:44:55.107Z,100633.30
2023-01-21T10:47:50.876Z,100636.20
2023-01-21T10:50:54.736Z,100632.80
2023-01-21T10:53:57.039Z,100628.21
2023-01-21T10:57:14.404Z,100622.76
2023-01-21T11:00:43.819Z,100621.24
2023-01-21T11:03:52.244Z,100622.12
2023-01-21T11:10:50.184Z,100619.95
2023-01-21T11:14:13.799Z,100613.83
2023-01-21T11:17:45.065Z,100617.55
2023-01-21T11:21:24.350Z,100613.80
2023-01-21T11:24:05.182Z,100617.02
2023-01-21T11:26:39.305Z,100609.17
2023-01-21T11:29:20.330Z,100611.73
2023-01-21T11:31:53.178Z,100611.55
2023-01-21T11:34:23.503Z,100605.41
2023-01-21T11:37:07.687Z,100607.80
2023-01-21T11:39:48.258Z,100601.15
2023-01-21T11:42:19.531Z,100603.20
2023-01-21T11:45:48.968Z,100603.90
2023-01-21T11:48:30.559Z,100605.10
2023-01-21T11:51:08.917Z,100598.62
2023-01-21T11:53:41.499Z,100597.27
2023-01-21T11:56:10.409Z,100600.53
2023-01-21T11:58:50.566Z,100603.95
2023-01-21T12:01:54.093Z,100605.48
2023-01-21T12:04:55.795Z,100602.89
2023-01-21T12:08:59.235Z,100601.36
2023-01-21T12:12:10.513Z,100604.27
2023-01-21T12:15:45.721Z,100602.23
2023-01-21T12:18:57.719Z,100601.38
2023-01-21T12:22:33.750Z,100600.86
2023-01-21T12:26:13.975Z,100603.07
2023-01-21T12:30:01.824Z,100602.23
2023-01-21T12:32:52.637Z,100603.31
2023-01-21T12:35:43.615Z,100596.66
2023-01-21T12:38:18.899Z,100594.48
2023-01-21T12:40:58.884Z,100596.52
2023-01-21T12:43:47.091Z,100597.36
2023-01-21T12:46:45.640Z,100600.10
2023-01-21T12:49:40.484Z,100599.95
2023-01-21T12:53:24.614Z,100598.41
2023-01-21T12:56:53.076Z,100600.81
2023-01-21T13:00:13.875Z,100604.72
2023-01-21T13:03:56.849Z,100607.61
2023-01-21T13:06:56.867Z,100605.88
2023-01-21T13:10:28.406Z,100609.28
2023-01-21T13:17:00.731Z,100610.83
2023-01-21T13:31:28.040Z,100610.14
2023-01-21T13:38:40.335Z,100619.88
2023-01-21T13:41:45.179Z,100619.02
2023-01-21T13:52:35.492Z,100625.82
2023-01-21T14:00:46.924Z,100631.45
2023-01-21T14:04:23.646Z,100634.38
2023-01-21T14:07:16.796Z,100626.86
2023-01-21T14:10:45.056Z,100632.66
2023-01-21T14:14:20.347Z,100636.22
2023-01-21T14:17:52.343Z,100637.58
2023-01-21T14:21:31.095Z,100641.70
2023-01-21T14:25:05.274Z,100643.92
2023-01-21T14:28:32.528Z,100643.77
2023-01-21T14:31:50.832Z,100650.73
2023-01-21T14:35:41.648Z,100655.16
2023-01-21T14:39:33.665Z,100659.92
2023-01-21T14:43:03.408Z,100657.34
2023-01-21T14:46:53.845Z,100667.23
2023-01-21T14:50:23.357Z,100669.24
2023-01-21T14:53:45.232Z,100677.25
2023-01-21T14:57:18.307Z,100679.81
2023-01-21T15:00:44.981Z,100685.27
2023-01-21T15:04:26.184Z,100688.17
2023-01-21T15:08:00.072Z,100689.20
2023-01-21T15:11:40.337Z,100694.83
2023-01-21T15:32:53.792Z,100715.77
2023-01-21T15:36:37.244Z,100721.23
2023-01-21T15:40:15.332Z,100725.33
2023-01-21T15:43:46.770Z,100728.70
2023-01-21T15:47:25.581Z,100733.15
2023-01-21T15:51:10.773Z,100735.88
2023-01-21T15:54:51.438Z,100740.99
2023-01-21T15:58:39.889Z,100746.63
2023-01-21T16:02:17.523Z,100751.23
2023-01-21T16:06:21.299Z,100754.97
2023-01-21T16:10:09.301Z,100758.91
2023-01-21T16:26:28.362Z,100776.15
2023-01-21T16:33:06.221Z,100787.44
2023-01-21T16:39:37.371Z,100792.06
2023-01-21T16:47:22.228Z,100801.15
2023-01-21T16:50:51.532Z,100808.82
2023-01-21T16:54:09.104Z,100813.77
2023-01-21T16:57:28.860Z,100811.89
2023-01-21T17:01:07.455Z,100820.11
2023-01-21T17:04:32.636Z,100824.05
2023-01-21T17:08:05.270Z,100827.11
2023-01-21T17:14:35.329Z,100837.18
2023-01-21T17:18:37.457Z,100848.80
2023-01-21T17:22:08.127Z,100856.67
2023-01-21T17:24:57.981Z,100857.86
2023-01-21T17:28:28.912Z,100861.27
2023-01-21T17:32:16.787Z,100868.80
2023-01-21T17:39:49.986Z,100873.48
2023-01-21T17:43:26.665Z,100887.48
2023-01-21T17:46:41.402Z,100890.90
2023-01-21T17:50:11.991Z,100899.59
2023-01-21T17:53:46.032Z,100902.14
2023-01-21T17:56:30.488Z,100906.92
2023-01-21T18:00:13.712Z,100913.91
2023-01-21T18:03:43.268Z,100917.34
2023-01-21T18:07:21.856Z,100927.05
2023-01-21T18:10:58.617Z,100930.45
2023-01-21T18:14:30.914Z,100943.23
2023-01-21T18:18:01.621Z,100941.88
2023-01-21T18:21:31.451Z,100941.70
2023-01-21T18:42:21.083Z,100966.08
2023-01-21T19:27:58.662Z,101002.15
2023-01-21T19:38:03.291Z,101021.26
2023-01-21T19:41:36.788Z,101025.50
2023-01-21T19:45:15.381Z,101034.52
2023-01-21T19:49:10.703Z,101037.59
2023-01-21T19:58:21.847Z,101045.73
2023-01-21T20:02:24.559Z,101051.91
2023-01-21T20:05:36.067Z,101060.29
2023-01-21T20:08:26.515Z,101059.59
2023-01-21T20:31:10.132Z,101090.62
2023-01-21T20:35:23.509Z,101095.91
2023-01-21T20:38:47.870Z,101103.63
2023-01-21T20:42:23.071Z,101110.13
2023-01-21T20:45:48.214Z,101114.90
2023-01-21T20:49:17.968Z,101121.73
2023-01-21T20:52:57.180Z,101125.98
2023-01-21T20:56:29.557Z,101132.33
2023-01-21T21:00:00.179Z,101134.23
2023-01-21T21:03:33.896Z,101136.81
2023-01-21T21:07:17.624Z,101141.10
2023-01-21T21:10:44.050Z,101142.80
2023-01-21T21:14:29.858Z,101146.23
2023-01-21T21:18:13.087Z,101151.90
2023-01-21T21:24:47.171Z,101159.89
2023-01-21T21:28:20.151Z,101162.66
2023-01-21T21:31:44.285Z,101169.87
2023-01-21T21:35:19.076Z,101170.56
2023-01-21T21:52:12.958Z,101180.93
2023-01-21T21:58:04.171Z,101184.18
2023-01-21T22:01:48.226Z,101187.73
2023-01-21T22:14:09.351Z,101200.02
2023-01-21T22:17:56.445Z,101202.29
2023-01-21T22:25:39.804Z,101209.31
2023-01-21T22:28:30.487Z,101215.75
2023-01-21T22:32:03.067Z,101221.06
2023-01-21T22:35:10.000Z,101221.06
2023-01-21T22:38:16.688Z,101225.66
2023-01-21T22:41:41.988Z,101225.81
2023-01-21T22:45:28.039Z,101231.44
2023-01-21T22:54:58.157Z,101238.48
2023-01-21T22:58:37.046Z,101245.30
2023-01-21T23:01:59.201Z,101250.80
2023-01-21T23:11:37.223Z,101253.35
2023-01-21T23:15:04.606Z,101252.50
2023-01-21T23:28:30.734Z,101262.25
2023-01-21T23:35:10.859Z,101269.42
2023-01-21T23:38:48.818Z,101265.49
2023-01-21T23:42:08.479Z,101265.84
2023-01-21T23:45:20.412Z,101271.81
2023-01-21T23:49:32.292Z,101274.89
2023-01-21T23:53:08.150Z,101280.31
2023-01-21T23:56:40.719Z,101284.39
